sensor_id;sensor_type;location;lat;lon;timestamp;pressure;altitude;pressure_sealevel;temperature;humidity
20003;BME280;10162;41.600;23.806;2024-01-07T00:03:54;93866.44;;;8.73;100.00
20003;BME280;10162;41.600;23.806;2024-01-07T00:06:20;93875.19;;;8.79;100.00
20003;BME280;10162;41.600;23.806;2024-01-07T00:12:41;93854.84;;;8.13;100.00
20003;BME280;10162;41.600;23.806;2024-01-07T00:15:07;93824.00;;;7.85;100.00
20003;BME280;10162;41.600;23.806;2024-01-07T00:17:32;93823.22;;;7.84;100.00
20003;BME280;10162;41.600;23.806;2024-01-07T00:24:06;93766.78;;;7.85;100.00
20003;BME280;10162;41.600;23.806;2024-01-07T00:26:31;93803.66;;;8.32;100.00
20003;BME280;10162;41.600;23.806;2024-01-07T00:31:48;93761.75;;;8.40;100.00
20003;BME280;10162;41.600;23.806;2024-01-07T00:34:13;93749.50;;;8.15;100.00
20003;BME280;10162;41.600;23.806;2024-01-07T00:36:40;93737.53;;;8.14;100.00
20003;BME280;10162;41.600;23.806;2024-01-07T00:42:13;93726.25;;;8.45;100.00
20003;BME280;10162;41.600;23.806;2024-01-07T00:44:39;93715.97;;;8.68;100.00
20003;BME280;10162;41.600;23.806;2024-01-07T00:47:05;93695.19;;;8.44;100.00
20003;BME280;10162;41.600;23.806;2024-01-07T00:50:08;93716.53;;;8.34;100.00
20003;BME280;10162;41.600;23.806;2024-01-07T00:52:37;93690.72;;;8.26;100.00
20003;BME280;10162;41.600;23.806;2024-01-07T00:55:04;93687.03;;;8.15;100.00
20003;BME280;10162;41.600;23.806;2024-01-07T00:57:32;93675.38;;;8.00;100.00
20003;BME280;10162;41.600;23.806;2024-01-07T01:03:52;93661.41;;;8.19;100.00
20003;BME280;10162;41.600;23.806;2024-01-07T01:06:18;93643.66;;;7.91;100.00
20003;BME280;10162;41.600;23.806;2024-01-07T01:12:38;93640.16;;;7.79;100.00
20003;BME280;10162;41.600;23.806;2024-01-07T01:15:04;93626.75;;;7.75;100.00
20003;BME280;10162;41.600;23.806;2024-01-07T01:17:30;93617.69;;;7.60;100.00
20003;BME280;10162;41.600;23.806;2024-01-07T01:23:50;93599.81;;;7.70;100.00
20003;BME280;10162;41.600;23.806;2024-01-07T01:27:03;93602.72;;;7.80;100.00
20003;BME280;10162;41.600;23.806;2024-01-07T01:34:23;93568.69;;;7.81;100.00
20003;BME280;10162;41.600;23.806;2024-01-07T01:36:51;93567.16;;;7.92;100.00
20003;BME280;10162;41.600;23.806;2024-01-07T01:39:34;93535.09;;;7.80;100.00
20003;BME280;10162;41.600;23.806;2024-01-07T01:41:59;93559.81;;;7.89;100.00
20003;BME280;10162;41.600;23.806;2024-01-07T01:44:34;93579.47;;;7.85;100.00
20003;BME280;10162;41.600;23.806;2024-01-07T01:47:06;93563.28;;;7.58;100.00
20003;BME280;10162;41.600;23.806;2024-01-07T01:53:36;93640.22;;;7.72;100.00
20003;BME280;10162;41.600;23.806;2024-01-07T01:56:06;93665.06;;;7.68;100.00
20003;BME280;10162;41.600;23.806;2024-01-07T02:01:45;93641.31;;;7.83;100.00
20003;BME280;10162;41.600;23.806;2024-01-07T02:04:11;93653.63;;;7.94;100.00
20003;BME280;10162;41.600;23.806;2024-01-07T02:06:38;93681.22;;;7.95;100.00
20003;BME280;10162;41.600;23.806;2024-01-07T02:09:05;93638.22;;;7.93;100.00
20003;BME280;10162;41.600;23.806;2024-01-07T02:11:31;93644.13;;;7.81;100.00
20003;BME280;10162;41.600;23.806;2024-01-07T02:14:05;93670.50;;;7.85;100.00
20003;BME280;10162;41.600;23.806;2024-01-07T02:16:31;93698.22;;;7.98;100.00
20003;BME280;10162;41.600;23.806;2024-01-07T02:19:33;93719.13;;;8.09;100.00
20003;BME280;10162;41.600;23.806;2024-01-07T02:21:59;93715.06;;;7.95;100.00
20003;BME280;10162;41.600;23.806;2024-01-07T02:24:25;93694.66;;;7.67;100.00
20003;BME280;10162;41.600;23.806;2024-01-07T02:26:51;93700.31;;;7.58;100.00
20003;BME280;10162;41.600;23.806;2024-01-07T02:29:52;93712.66;;;7.69;100.00
20003;BME280;10162;41.600;23.806;2024-01-07T02:32:18;93695.03;;;7.46;100.00
20003;BME280;10162;41.600;23.806;2024-01-07T02:34:46;93711.34;;;7.53;100.00
20003;BME280;10162;41.600;23.806;2024-01-07T02:41:09;93674.31;;;7.33;100.00
20003;BME280;10162;41.600;23.806;2024-01-07T02:43:36;93680.44;;;7.45;100.00
20003;BME280;10162;41.600;23.806;2024-01-07T02:46:02;93665.28;;;7.35;100.00
20003;BME280;10162;41.600;23.806;2024-01-07T03:04:55;93594.03;;;7.68;100.00
20003;BME280;10162;41.600;23.806;2024-01-07T03:07:56;93595.47;;;7.39;100.00
20003;BME280;10162;41.600;23.806;2024-01-07T03:14:22;93583.16;;;7.53;100.00
20003;BME280;10162;41.600;23.806;2024-01-07T03:17:05;93616.84;;;7.66;100.00
20003;BME280;10162;41.600;23.806;2024-01-07T03:23:51;93606.59;;;7.71;100.00
20003;BME280;10162;41.600;23.806;2024-01-07T03:26:21;93597.03;;;7.65;100.00
20003;BME280;10162;41.600;23.806;2024-01-07T03:32:41;93576.16;;;7.53;100.00
20003;BME280;10162;41.600;23.806;2024-01-07T03:35:07;93585.78;;;7.71;100.00
20003;BME280;10162;41.600;23.806;2024-01-07T03:37:34;93578.69;;;7.60;100.00
20003;BME280;10162;41.600;23.806;2024-01-07T03:40:11;93575.84;;;7.43;100.00
20003;BME280;10162;41.600;23.806;2024-01-07T03:42:59;93547.47;;;7.17;100.00
20003;BME280;10162;41.600;23.806;2024-01-07T03:45:36;93556.91;;;7.11;100.00
20003;BME280;10162;41.600;23.806;2024-01-07T03:48:03;93552.94;;;7.09;100.00
20003;BME280;10162;41.600;23.806;2024-01-07T03:54:22;93525.75;;;7.29;100.00
20003;BME280;10162;41.600;23.806;2024-01-07T03:57:10;93535.75;;;7.32;100.00
20003;BME280;10162;41.600;23.806;2024-01-07T04:04:27;93527.47;;;6.92;100.00
20003;BME280;10162;41.600;23.806;2024-01-07T04:07:32;93595.09;;;7.11;100.00
20003;BME280;10162;41.600;23.806;2024-01-07T04:14:05;93607.13;;;6.67;100.00
20003;BME280;10162;41.600;23.806;2024-01-07T04:24:06;93604.56;;;6.16;100.00
20003;BME280;10162;41.600;23.806;2024-01-07T04:26:36;93620.53;;;6.19;100.00
20003;BME280;10162;41.600;23.806;2024-01-07T04:32:55;93627.09;;;6.15;100.00
20003;BME280;10162;41.600;23.806;2024-01-07T04:35:21;93600.41;;;6.02;100.00
20003;BME280;10162;41.600;23.806;2024-01-07T04:37:47;93620.13;;;6.16;100.00
20003;BME280;10162;41.600;23.806;2024-01-07T04:44:07;93598.84;;;5.94;100.00
20003;BME280;10162;41.600;23.806;2024-01-07T04:46:34;93576.28;;;5.81;100.00
20003;BME280;10162;41.600;23.806;2024-01-07T04:49:20;93613.59;;;5.87;100.00
20003;BME280;10162;41.600;23.806;2024-01-07T04:52:04;93583.72;;;5.58;100.00
20003;BME280;10162;41.600;23.806;2024-01-07T04:54:31;93576.34;;;5.55;100.00
20003;BME280;10162;41.600;23.806;2024-01-07T04:56:57;93584.53;;;5.52;100.00
20003;BME280;10162;41.600;23.806;2024-01-07T05:03:45;93605.63;;;5.95;100.00
20003;BME280;10162;41.600;23.806;2024-01-07T05:06:11;93601.19;;;6.09;100.00
20003;BME280;10162;41.600;23.806;2024-01-07T05:12:48;93573.94;;;6.38;100.00
20003;BME280;10162;41.600;23.806;2024-01-07T05:15:27;93584.28;;;6.44;100.00
20003;BME280;10162;41.600;23.806;2024-01-07T05:17:56;93604.84;;;6.46;100.00
20003;BME280;10162;41.600;23.806;2024-01-07T05:20:31;93578.72;;;6.41;100.00
20003;BME280;10162;41.600;23.806;2024-01-07T05:23:24;93550.63;;;6.31;100.00
20003;BME280;10162;41.600;23.806;2024-01-07T05:31:22;93609.69;;;6.74;100.00
20003;BME280;10162;41.600;23.806;2024-01-07T05:42:07;93583.31;;;6.39;100.00
20003;BME280;10162;41.600;23.806;2024-01-07T05:44:33;93592.66;;;6.46;100.00
20003;BME280;10162;41.600;23.806;2024-01-07T05:46:59;93583.28;;;6.45;100.00
20003;BME280;10162;41.600;23.806;2024-01-07T05:53:20;93590.66;;;6.48;100.00
20003;BME280;10162;41.600;23.806;2024-01-07T05:55:46;93601.22;;;6.53;100.00
20003;BME280;10162;41.600;23.806;2024-01-07T05:58:11;93610.84;;;6.46;100.00
20003;BME280;10162;41.600;23.806;2024-01-07T06:00:38;93627.00;;;6.55;100.00
20003;BME280;10162;41.600;23.806;2024-01-07T06:03:04;93618.59;;;6.53;100.00
20003;BME280;10162;41.600;23.806;2024-01-07T06:05:30;93641.91;;;6.66;100.00
20003;BME280;10162;41.600;23.806;2024-01-07T06:07:56;93631.44;;;6.41;100.00
20003;BME280;10162;41.600;23.806;2024-01-07T06:14:17;93641.22;;;6.33;100.00
20003;BME280;10162;41.600;23.806;2024-01-07T06:16:42;93667.53;;;6.49;100.00
20003;BME280;10162;41.600;23.806;2024-01-07T06:19:29;93669.53;;;6.54;100.00
20003;BME280;10162;41.600;23.806;2024-01-07T06:21:55;93645.41;;;6.34;100.00
20003;BME280;10162;41.600;23.806;2024-01-07T06:24:21;93656.38;;;6.49;100.00
20003;BME280;10162;41.600;23.806;2024-01-07T06:26:47;93679.63;;;6.69;100.00
20003;BME280;10162;41.600;23.806;2024-01-07T06:33:07;93645.09;;;6.68;100.00
20003;BME280;10162;41.600;23.806;2024-01-07T06:35:32;93649.56;;;6.92;100.00
20003;BME280;10162;41.600;23.806;2024-01-07T06:37:58;93642.09;;;7.02;100.00
20003;BME280;10162;41.600;23.806;2024-01-07T06:43:31;93647.56;;;7.26;100.00
20003;BME280;10162;41.600;23.806;2024-01-07T06:45:57;93657.03;;;7.45;100.00
20003;BME280;10162;41.600;23.806;2024-01-07T06:48:24;93652.78;;;7.51;100.00
20003;BME280;10162;41.600;23.806;2024-01-07T06:50:50;93675.88;;;7.65;100.00
20003;BME280;10162;41.600;23.806;2024-01-07T06:53:17;93669.38;;;7.50;100.00
20003;BME280;10162;41.600;23.806;2024-01-07T06:55:42;93672.75;;;7.57;100.00
20003;BME280;10162;41.600;23.806;2024-01-07T06:58:08;93635.84;;;7.41;100.00
20003;BME280;10162;41.600;23.806;2024-01-07T07:00:34;93687.97;;;7.78;100.00
20003;BME280;10162;41.600;23.806;2024-01-07T07:03:00;93658.06;;;7.69;100.00
20003;BME280;10162;41.600;23.806;2024-01-07T07:05:25;93655.31;;;7.82;100.00
20003;BME280;10162;41.600;23.806;2024-01-07T07:07:52;93648.84;;;7.66;100.00
20003;BME280;10162;41.600;23.806;2024-01-07T07:13:39;93638.25;;;7.68;100.00
20003;BME280;10162;41.600;23.806;2024-01-07T07:16:05;93642.50;;;7.62;100.00
20003;BME280;10162;41.600;23.806;2024-01-07T07:18:31;93657.91;;;7.82;100.00
20003;BME280;10162;41.600;23.806;2024-01-07T07:20:58;93652.31;;;7.85;100.00
20003;BME280;10162;41.600;23.806;2024-01-07T07:23:24;93654.38;;;7.76;100.00
20003;BME280;10162;41.600;23.806;2024-01-07T07:25:50;93624.28;;;7.62;100.00
20003;BME280;10162;41.600;23.806;2024-01-07T07:32:15;93649.66;;;8.10;100.00
20003;BME280;10162;41.600;23.806;2024-01-07T07:34:41;93647.56;;;8.00;100.00
20003;BME280;10162;41.600;23.806;2024-01-07T07:37:07;93647.09;;;8.03;100.00
20003;BME280;10162;41.600;23.806;2024-01-07T07:43:28;93637.16;;;8.00;100.00
20003;BME280;10162;41.600;23.806;2024-01-07T07:45:55;93635.66;;;7.86;100.00
20003;BME280;10162;41.600;23.806;2024-01-07T07:51:26;93646.88;;;7.86;100.00
20003;BME280;10162;41.600;23.806;2024-01-07T07:53:52;93664.72;;;7.83;100.00
20003;BME280;10162;41.600;23.806;2024-01-07T07:56:18;93645.09;;;7.62;100.00
20003;BME280;10162;41.600;23.806;2024-01-07T07:58:48;93658.19;;;7.49;100.00
20003;BME280;10162;41.600;23.806;2024-01-07T08:01:14;93658.34;;;7.54;100.00
20003;BME280;10162;41.600;23.806;2024-01-07T08:03:39;93645.41;;;7.47;100.00
20003;BME280;10162;41.600;23.806;2024-01-07T08:06:05;93640.00;;;7.49;100.00
20003;BME280;10162;41.600;23.806;2024-01-07T08:08:32;93648.44;;;7.44;100.00
20003;BME280;10162;41.600;23.806;2024-01-07T08:11:02;93658.84;;;7.44;100.00
20003;BME280;10162;41.600;23.806;2024-01-07T08:13:31;93643.31;;;7.31;100.00
20003;BME280;10162;41.600;23.806;2024-01-07T08:15:56;93656.44;;;7.43;100.00
20003;BME280;10162;41.600;23.806;2024-01-07T08:18:23;93644.59;;;7.22;100.00
20003;BME280;10162;41.600;23.806;2024-01-07T08:20:49;93663.72;;;7.34;100.00
20003;BME280;10162;41.600;23.806;2024-01-07T08:23:15;93646.78;;;7.19;100.00
20003;BME280;10162;41.600;23.806;2024-01-07T08:25:41;93643.06;;;7.08;100.00
20003;BME280;10162;41.600;23.806;2024-01-07T08:28:07;93623.72;;;7.04;100.00
20003;BME280;10162;41.600;23.806;2024-01-07T08:30:33;93636.06;;;7.09;100.00
20003;BME280;10162;41.600;23.806;2024-01-07T08:32:58;93646.22;;;7.17;100.00
20003;BME280;10162;41.600;23.806;2024-01-07T08:35:24;93646.31;;;7.03;100.00
20003;BME280;10162;41.600;23.806;2024-01-07T08:37:50;93648.25;;;7.08;100.00
20003;BME280;10162;41.600;23.806;2024-01-07T08:40:19;93651.84;;;7.14;100.00
20003;BME280;10162;41.600;23.806;2024-01-07T08:42:46;93634.75;;;6.99;100.00
20003;BME280;10162;41.600;23.806;2024-01-07T08:45:12;93637.53;;;6.98;100.00
20003;BME280;10162;41.600;23.806;2024-01-07T08:47:38;93629.78;;;6.91;100.00
20003;BME280;10162;41.600;23.806;2024-01-07T08:50:06;93639.94;;;6.99;100.00
20003;BME280;10162;41.600;23.806;2024-01-07T08:52:33;93674.97;;;7.22;100.00
20003;BME280;10162;41.600;23.806;2024-01-07T08:55:01;93673.41;;;7.14;100.00
20003;BME280;10162;41.600;23.806;2024-01-07T08:57:27;93634.22;;;6.84;100.00
20003;BME280;10162;41.600;23.806;2024-01-07T08:59:56;93647.25;;;7.09;100.00
20003;BME280;10162;41.600;23.806;2024-01-07T09:02:22;93659.22;;;7.17;100.00
20003;BME280;10162;41.600;23.806;2024-01-07T09:04:48;93666.50;;;7.33;100.00
20003;BME280;10162;41.600;23.806;2024-01-07T09:07:14;93637.41;;;7.18;100.00
20003;BME280;10162;41.600;23.806;2024-01-07T09:09:52;93642.44;;;7.44;100.00
20003;BME280;10162;41.600;23.806;2024-01-07T09:12:20;93612.75;;;7.27;100.00
20003;BME280;10162;41.600;23.806;2024-01-07T09:15:14;93659.31;;;7.84;100.00
20003;BME280;10162;41.600;23.806;2024-01-07T09:17:41;93634.16;;;7.78;100.00
20003;BME280;10162;41.600;23.806;2024-01-07T09:20:10;93636.09;;;7.83;100.00
20003;BME280;10162;41.600;23.806;2024-01-07T09:22:36;93626.69;;;7.82;100.00
20003;BME280;10162;41.600;23.806;2024-01-07T09:25:03;93601.53;;;7.76;100.00
20003;BME280;10162;41.600;23.806;2024-01-07T09:27:29;93638.88;;;8.06;100.00
20003;BME280;10162;41.600;23.806;2024-01-07T09:29:57;93604.38;;;7.93;100.00
20003;BME280;10162;41.600;23.806;2024-01-07T09:32:24;93619.72;;;8.01;100.00
20003;BME280;10162;41.600;23.806;2024-01-07T09:34:50;93613.22;;;8.10;100.00
20003;BME280;10162;41.600;23.806;2024-01-07T09:37:16;93624.81;;;8.32;100.00
20003;BME280;10162;41.600;23.806;2024-01-07T09:42:50;93610.75;;;8.15;100.00
20003;BME280;10162;41.600;23.806;2024-01-07T09:45:18;93610.25;;;8.06;100.00
20003;BME280;10162;41.600;23.806;2024-01-07T09:47:44;93620.47;;;8.08;100.00
20003;BME280;10162;41.600;23.806;2024-01-07T09:54:08;93600.00;;;8.11;100.00
20003;BME280;10162;41.600;23.806;2024-01-07T09:56:39;93598.06;;;8.07;100.00
20003;BME280;10162;41.600;23.806;2024-01-07T09:59:24;93585.25;;;8.05;100.00
20003;BME280;10162;41.600;23.806;2024-01-07T10:01:50;93583.72;;;7.98;100.00
20003;BME280;10162;41.600;23.806;2024-01-07T10:04:16;93586.19;;;7.93;100.00
20003;BME280;10162;41.600;23.806;2024-01-07T10:06:42;93590.91;;;8.02;100.00
20003;BME280;10162;41.600;23.806;2024-01-07T10:09:43;93598.06;;;8.07;100.00
20003;BME280;10162;41.600;23.806;2024-01-07T10:12:09;93575.91;;;7.79;100.00
20003;BME280;10162;41.600;23.806;2024-01-07T10:14:35;93590.81;;;7.91;100.00
20003;BME280;10162;41.600;23.806;2024-01-07T10:17:14;93564.97;;;7.71;100.00
20003;BME280;10162;41.600;23.806;2024-01-07T10:19:47;93550.19;;;7.71;100.00
20003;BME280;10162;41.600;23.806;2024-01-07T10:22:13;93578.50;;;7.98;100.00
20003;BME280;10162;41.600;23.806;2024-01-07T10:24:40;93555.47;;;7.83;100.00
20003;BME280;10162;41.600;23.806;2024-01-07T10:27:07;93583.16;;;8.14;100.00
20003;BME280;10162;41.600;23.806;2024-01-07T10:29:38;93568.28;;;8.03;100.00
20003;BME280;10162;41.600;23.806;2024-01-07T10:32:04;93572.59;;;8.09;100.00
20003;BME280;10162;41.600;23.806;2024-01-07T10:34:32;93568.63;;;8.06;100.00
20003;BME280;10162;41.600;23.806;2024-01-07T10:37:00;93567.81;;;8.24;100.00
20003;BME280;10162;41.600;23.806;2024-01-07T10:40:02;93561.53;;;8.32;100.00
20003;BME280;10162;41.600;23.806;2024-01-07T10:42:32;93521.13;;;8.11;100.00
20003;BME280;10162;41.600;23.806;2024-01-07T10:44:59;93546.63;;;8.20;100.00
20003;BME280;10162;41.600;23.806;2024-01-07T10:47:29;93532.38;;;8.23;100.00
20003;BME280;10162;41.600;23.806;2024-01-07T10:53:06;93486.75;;;8.20;100.00
20003;BME280;10162;41.600;23.806;2024-01-07T10:55:34;93516.25;;;8.51;100.00
20003;BME280;10162;41.600;23.806;2024-01-07T10:58:03;93521.28;;;8.64;100.00
20003;BME280;10162;41.600;23.806;2024-01-07T11:00:37;93488.13;;;8.71;100.00
20003;BME280;10162;41.600;23.806;2024-01-07T11:08:19;93487.50;;;9.22;100.00
20003;BME280;10162;41.600;23.806;2024-01-07T11:10:57;93498.28;;;9.37;100.00
20003;BME280;10162;41.600;23.806;2024-01-07T11:13:37;93496.47;;;9.49;100.00
20003;BME280;10162;41.600;23.806;2024-01-07T11:16:07;93480.94;;;9.43;100.00
20003;BME280;10162;41.600;23.806;2024-01-07T11:18:54;93476.84;;;9.47;100.00
20003;BME280;10162;41.600;23.806;2024-01-07T11:21:21;93488.44;;;9.51;100.00
20003;BME280;10162;41.600;23.806;2024-01-07T11:23:47;93468.69;;;9.32;100.00
20003;BME280;10162;41.600;23.806;2024-01-07T11:26:13;93458.84;;;9.10;100.00
20003;BME280;10162;41.600;23.806;2024-01-07T11:28:56;93485.25;;;9.26;100.00
20003;BME280;10162;41.600;23.806;2024-01-07T11:31:42;93483.06;;;9.23;100.00
20003;BME280;10162;41.600;23.806;2024-01-07T11:34:08;93463.41;;;8.74;100.00
20003;BME280;10162;41.600;23.806;2024-01-07T11:36:37;93462.28;;;8.69;100.00
20003;BME280;10162;41.600;23.806;2024-01-07T11:39:09;93456.38;;;8.62;100.00
20003;BME280;10162;41.600;23.806;2024-01-07T11:41:37;93477.00;;;8.64;100.00
20003;BME280;10162;41.600;23.806;2024-01-07T11:44:04;93468.16;;;8.65;100.00
20003;BME280;10162;41.600;23.806;2024-01-07T11:46:31;93469.09;;;8.70;100.00
20003;BME280;10162;41.600;23.806;2024-01-07T11:49:08;93476.09;;;8.70;100.00
20003;BME280;10162;41.600;23.806;2024-01-07T11:51:35;93461.00;;;8.60;100.00
20003;BME280;10162;41.600;23.806;2024-01-07T11:54:03;93461.25;;;8.59;100.00
20003;BME280;10162;41.600;23.806;2024-01-07T11:56:29;93454.31;;;8.53;100.00
20003;BME280;10162;41.600;23.806;2024-01-07T12:02:30;93447.03;;;8.43;100.00
20003;BME280;10162;41.600;23.806;2024-01-07T12:04:57;93445.69;;;8.41;100.00
20003;BME280;10162;41.600;23.806;2024-01-07T12:07:23;93456.88;;;8.41;100.00
20003;BME280;10162;41.600;23.806;2024-01-07T12:09:59;93457.19;;;8.33;100.00
20003;BME280;10162;41.600;23.806;2024-01-07T12:12:26;93453.91;;;8.38;100.00
20003;BME280;10162;41.600;23.806;2024-01-07T12:14:52;93452.69;;;8.40;100.00
20003;BME280;10162;41.600;23.806;2024-01-07T12:17:18;93403.22;;;8.10;100.00
20003;BME280;10162;41.600;23.806;2024-01-07T12:19:44;93447.94;;;8.37;100.00
20003;BME280;10162;41.600;23.806;2024-01-07T12:22:12;93445.03;;;8.27;100.00
20003;BME280;10162;41.600;23.806;2024-01-07T12:24:37;93443.81;;;8.29;100.00
20003;BME280;10162;41.600;23.806;2024-01-07T12:27:07;93437.19;;;8.45;100.00
20003;BME280;10162;41.600;23.806;2024-01-07T12:29:57;93438.44;;;8.54;100.00
20003;BME280;10162;41.600;23.806;2024-01-07T12:32:26;93427.03;;;8.55;100.00
20003;BME280;10162;41.600;23.806;2024-01-07T12:34:52;93439.97;;;8.74;100.00
20003;BME280;10162;41.600;23.806;2024-01-07T12:37:17;93427.16;;;8.72;100.00
20003;BME280;10162;41.600;23.806;2024-01-07T12:39:56;93433.53;;;8.88;100.00
20003;BME280;10162;41.600;23.806;2024-01-07T12:42:21;93422.78;;;8.96;100.00
20003;BME280;10162;41.600;23.806;2024-01-07T12:44:48;93428.66;;;8.91;100.00
20003;BME280;10162;41.600;23.806;2024-01-07T12:47:14;93422.66;;;8.79;100.00
20003;BME280;10162;41.600;23.806;2024-01-07T12:49:47;93420.16;;;8.73;100.00
20003;BME280;10162;41.600;23.806;2024-01-07T12:52:13;93432.28;;;8.79;100.00
20003;BME280;10162;41.600;23.806;2024-01-07T12:54:39;93428.41;;;8.69;100.00
20003;BME280;10162;41.600;23.806;2024-01-07T12:57:05;93433.28;;;8.78;100.00
20003;BME280;10162;41.600;23.806;2024-01-07T12:59:48;93445.44;;;8.95;100.00
20003;BME280;10162;41.600;23.806;2024-01-07T13:02:14;93428.88;;;8.90;100.00
20003;BME280;10162;41.600;23.806;2024-01-07T13:04:40;93437.50;;;8.90;100.00
20003;BME280;10162;41.600;23.806;2024-01-07T13:07:07;93427.06;;;8.90;100.00
20003;BME280;10162;41.600;23.806;2024-01-07T13:10:01;93425.50;;;9.01;100.00
20003;BME280;10162;41.600;23.806;2024-01-07T13:12:27;93421.28;;;9.00;100.00
20003;BME280;10162;41.600;23.806;2024-01-07T13:14:52;93390.38;;;8.80;100.00
20003;BME280;10162;41.600;23.806;2024-01-07T13:17:18;93381.44;;;8.76;100.00
20003;BME280;10162;41.600;23.806;2024-01-07T13:19:49;93406.69;;;8.87;100.00
20003;BME280;10162;41.600;23.806;2024-01-07T13:22:15;93395.38;;;8.82;100.00
20003;BME280;10162;41.600;23.806;2024-01-07T13:24:41;93400.47;;;8.77;100.00
20003;BME280;10162;41.600;23.806;2024-01-07T13:27:07;93398.75;;;8.82;100.00
20003;BME280;10162;41.600;23.806;2024-01-07T13:33:27;93408.28;;;8.77;100.00
20003;BME280;10162;41.600;23.806;2024-01-07T13:35:53;93412.22;;;8.79;100.00
20003;BME280;10162;41.600;23.806;2024-01-07T13:38:19;93416.22;;;8.82;100.00
20003;BME280;10162;41.600;23.806;2024-01-07T13:40:45;93406.22;;;8.79;100.00
20003;BME280;10162;41.600;23.806;2024-01-07T13:43:11;93394.44;;;8.64;100.00
20003;BME280;10162;41.600;23.806;2024-01-07T13:45:37;93393.88;;;8.86;100.00
20003;BME280;10162;41.600;23.806;2024-01-07T13:48:03;93385.16;;;8.80;100.00
20003;BME280;10162;41.600;23.806;2024-01-07T13:54:01;93394.00;;;8.79;100.00
20003;BME280;10162;41.600;23.806;2024-01-07T13:56:28;93390.59;;;8.79;100.00
20003;BME280;10162;41.600;23.806;2024-01-07T14:02:48;93379.72;;;8.70;100.00
20003;BME280;10162;41.600;23.806;2024-01-07T14:05:14;93387.84;;;8.62;100.00
20003;BME280;10162;41.600;23.806;2024-01-07T14:07:40;93383.09;;;8.47;100.00
20003;BME280;10162;41.600;23.806;2024-01-07T14:10:14;93409.50;;;8.62;100.00
20003;BME280;10162;41.600;23.806;2024-01-07T14:12:40;93398.00;;;8.40;100.00
20003;BME280;10162;41.600;23.806;2024-01-07T14:15:06;93402.53;;;8.45;100.00
20003;BME280;10162;41.600;23.806;2024-01-07T14:17:34;93399.38;;;8.31;100.00
20003;BME280;10162;41.600;23.806;2024-01-07T14:23:54;93401.06;;;8.37;100.00
20003;BME280;10162;41.600;23.806;2024-01-07T14:26:20;93408.53;;;8.34;100.00
20003;BME280;10162;41.600;23.806;2024-01-07T14:28:57;93390.38;;;8.27;100.00
20003;BME280;10162;41.600;23.806;2024-01-07T14:31:23;93373.28;;;8.19;100.00
20003;BME280;10162;41.600;23.806;2024-01-07T14:33:49;93397.16;;;8.28;100.00
20003;BME280;10162;41.600;23.806;2024-01-07T14:36:22;93390.25;;;8.22;100.00
20003;BME280;10162;41.600;23.806;2024-01-07T14:42:03;93416.34;;;8.15;100.00
20003;BME280;10162;41.600;23.806;2024-01-07T14:44:29;93392.63;;;7.94;100.00
20003;BME280;10162;41.600;23.806;2024-01-07T14:46:56;93379.16;;;7.85;100.00
20003;BME280;10162;41.600;23.806;2024-01-07T14:49:25;93395.38;;;7.99;100.00
20003;BME280;10162;41.600;23.806;2024-01-07T14:51:51;93372.69;;;7.87;100.00
20003;BME280;10162;41.600;23.806;2024-01-07T14:54:39;93414.13;;;8.19;100.00
20003;BME280;10162;41.600;23.806;2024-01-07T14:57:05;93390.06;;;8.05;100.00
20003;BME280;10162;41.600;23.806;2024-01-07T14:59:47;93402.19;;;8.11;100.00
20003;BME280;10162;41.600;23.806;2024-01-07T15:02:12;93400.69;;;8.04;100.00
20003;BME280;10162;41.600;23.806;2024-01-07T15:04:38;93399.34;;;8.01;100.00
20003;BME280;10162;41.600;23.806;2024-01-07T15:07:05;93420.00;;;8.14;100.00
20003;BME280;10162;41.600;23.806;2024-01-07T15:12:32;93406.47;;;8.06;100.00
20003;BME280;10162;41.600;23.806;2024-01-07T15:15:02;93408.75;;;8.02;100.00
20003;BME280;10162;41.600;23.806;2024-01-07T15:17:31;93389.28;;;8.05;100.00
20003;BME280;10162;41.600;23.806;2024-01-07T15:20:11;93418.44;;;8.25;100.00
20003;BME280;10162;41.600;23.806;2024-01-07T15:22:37;93405.78;;;7.99;100.00
20003;BME280;10162;41.600;23.806;2024-01-07T15:25:24;93431.28;;;8.08;100.00
20003;BME280;10162;41.600;23.806;2024-01-07T15:27:58;93417.59;;;7.83;100.00
20003;BME280;10162;41.600;23.806;2024-01-07T15:34:25;93429.31;;;8.04;100.00
20003;BME280;10162;41.600;23.806;2024-01-07T15:37:21;93416.78;;;7.82;100.00
20003;BME280;10162;41.600;23.806;2024-01-07T15:40:42;93435.19;;;7.99;100.00
20003;BME280;10162;41.600;23.806;2024-01-07T15:43:17;93440.41;;;7.99;100.00
20003;BME280;10162;41.600;23.806;2024-01-07T15:46:04;93430.19;;;7.98;100.00
20003;BME280;10162;41.600;23.806;2024-01-07T15:48:55;93431.25;;;7.97;100.00
20003;BME280;10162;41.600;23.806;2024-01-07T15:51:21;93399.91;;;7.73;100.00
20003;BME280;10162;41.600;23.806;2024-01-07T15:53:47;93427.84;;;7.96;100.00
20003;BME280;10162;41.600;23.806;2024-01-07T15:56:13;93428.25;;;7.93;100.00
20003;BME280;10162;41.600;23.806;2024-01-07T15:58:50;93417.13;;;7.86;100.00
20003;BME280;10162;41.600;23.806;2024-01-07T16:01:16;93411.66;;;7.76;100.00
20003;BME280;10162;41.600;23.806;2024-01-07T16:03:42;93421.78;;;7.84;100.00
20003;BME280;10162;41.600;23.806;2024-01-07T16:06:08;93420.13;;;7.71;100.00
20003;BME280;10162;41.600;23.806;2024-01-07T16:08:35;93421.94;;;7.71;100.00
20003;BME280;10162;41.600;23.806;2024-01-07T16:11:00;93420.06;;;7.78;100.00
20003;BME280;10162;41.600;23.806;2024-01-07T16:13:28;93414.94;;;7.71;100.00
20003;BME280;10162;41.600;23.806;2024-01-07T16:15:54;93409.66;;;7.60;100.00
20003;BME280;10162;41.600;23.806;2024-01-07T16:18:19;93429.22;;;7.80;100.00
20003;BME280;10162;41.600;23.806;2024-01-07T16:20:45;93386.59;;;7.52;100.00